createdAt,value
2019-04-04T00:01:16.745Z,7.63
2019-04-04T00:03:45.176Z,7.77
2019-04-04T00:06:13.587Z,7.30
2019-04-04T00:08:41.989Z,7.53
2019-04-04T00:11:10.384Z,6.97
2019-04-04T00:13:40.055Z,7.63
2019-04-04T00:16:08.914Z,7.97
2019-04-04T00:18:37.383Z,8.30
2019-04-04T00:21:05.790Z,8.20
2019-04-04T00:23:37.660Z,8.17
2019-04-04T00:26:04.722Z,8.07
2019-04-04T00:28:33.126Z,8.23
2019-04-04T00:31:01.537Z,9.30
2019-04-04T00:33:29.932Z,8.70
2019-04-04T00:35:58.342Z,7.93
2019-04-04T00:38:26.734Z,8.80
2019-04-04T00:40:55.130Z,8.03
2019-04-04T00:43:23.526Z,7.87
2019-04-04T00:45:51.942Z,8.17
2019-04-04T00:48:20.343Z,7.73
2019-04-04T00:50:48.742Z,8.03
2019-04-04T00:53:17.218Z,8.30
2019-04-04T00:55:46.926Z,7.97
2019-04-04T00:58:15.496Z,8.03
2019-04-04T01:00:43.898Z,8.23
2019-04-04T01:05:47.150Z,8.63
2019-04-04T01:08:15.551Z,8.10
2019-04-04T01:10:43.948Z,7.97
2019-04-04T01:13:12.359Z,8.60
2019-04-04T01:15:40.827Z,8.93
2019-04-04T01:18:09.226Z,8.40
2019-04-04T01:20:37.651Z,8.73
2019-04-04T01:23:06.066Z,8.30
2019-04-04T01:25:34.640Z,7.97
2019-04-04T01:28:03.046Z,8.33
2019-04-04T01:30:31.707Z,8.33
2019-04-04T01:33:00.102Z,7.83
2019-04-04T01:35:28.588Z,8.90
2019-04-04T01:37:58.760Z,9.17
2019-04-04T01:40:27.272Z,8.40
2019-04-04T01:42:55.671Z,8.80
2019-04-04T01:45:24.070Z,9.07
2019-04-04T01:47:52.476Z,9.57
2019-04-04T01:50:22.445Z,9.40
2019-04-04T01:52:51.002Z,9.50
2019-04-04T01:55:19.394Z,9.33
2019-04-04T01:57:47.807Z,8.93
2019-04-04T02:00:16.443Z,10.10
2019-04-04T02:02:44.838Z,9.13
2019-04-04T02:05:13.399Z,9.90
2019-04-04T02:07:41.802Z,10.50
2019-04-04T02:10:10.642Z,9.20
2019-04-04T02:12:39.392Z,10.10
2019-04-04T02:15:13.932Z,10.87
2019-04-04T02:17:40.562Z,10.57
2019-04-04T02:20:09.206Z,10.47
2019-04-04T02:22:37.610Z,10.40
2019-04-04T02:25:07.206Z,10.37
2019-04-04T02:27:37.684Z,10.60
2019-04-04T02:30:06.359Z,10.83
2019-04-04T02:32:34.755Z,9.83
2019-04-04T02:35:03.434Z,10.60
2019-04-04T02:37:31.854Z,10.47
2019-04-04T02:40:00.273Z,9.30
2019-04-04T02:42:28.731Z,9.83
2019-04-04T02:44:57.139Z,9.33
2019-04-04T02:47:25.215Z,10.57
2019-04-04T02:49:53.616Z,10.00
2019-04-04T02:52:22.122Z,11.33
2019-04-04T02:54:50.541Z,10.77
2019-04-04T02:57:18.937Z,11.47
2019-04-04T02:59:47.407Z,11.63
2019-04-04T03:02:15.806Z,11.57
2019-04-04T03:04:46.795Z,12.40
2019-04-04T03:07:14.423Z,13.30
2019-04-04T03:09:43.762Z,13.00
2019-04-04T03:12:12.403Z,11.30
2019-04-04T03:14:40.837Z,11.90
2019-04-04T03:17:09.300Z,10.90
2019-04-04T03:19:37.708Z,11.97
2019-04-04T03:22:06.143Z,11.97
2019-04-04T03:24:38.675Z,11.50
2019-04-04T03:27:04.690Z,12.67
2019-04-04T03:29:37.318Z,11.53
2019-04-04T03:32:03.233Z,12.03
2019-04-04T03:34:31.659Z,12.60
2019-04-04T03:37:00.064Z,11.47
2019-04-04T03:39:28.471Z,11.10
2019-04-04T03:41:56.888Z,11.30
2019-04-04T03:44:25.280Z,12.03
2019-04-04T03:46:53.698Z,12.13
2019-04-04T03:49:24.467Z,11.47
2019-04-04T03:51:52.231Z,11.80
2019-04-04T03:54:23.408Z,11.60
2019-04-04T03:56:52.049Z,11.67
2019-04-04T03:59:20.472Z,12.37
2019-04-04T04:01:48.875Z,12.10
2019-04-04T04:04:17.354Z,10.97
2019-04-04T04:06:45.764Z,10.87
2019-04-04T04:09:14.174Z,10.67
2019-04-04T04:11:42.579Z,10.77
2019-04-04T04:14:10.989Z,11.53
2019-04-04T04:16:39.487Z,11.37
2019-04-04T04:19:07.892Z,10.37
2019-04-04T04:21:36.295Z,11.50
2019-04-04T04:24:04.720Z,11.37
2019-04-04T04:26:33.663Z,11.30
2019-04-04T04:29:02.062Z,11.67
2019-04-04T04:31:30.479Z,11.00
2019-04-04T04:34:01.580Z,11.17
2019-04-04T04:36:29.013Z,10.80
2019-04-04T04:39:00.038Z,11.33
2019-04-04T04:41:27.679Z,11.77
2019-04-04T04:43:56.116Z,12.00
2019-04-04T04:46:24.520Z,12.17
2019-04-04T04:48:52.922Z,11.63
2019-04-04T04:51:21.328Z,12.50
2019-04-04T04:53:50.642Z,12.33
2019-04-04T04:56:19.690Z,17.73
2019-04-04T04:58:48.099Z,15.47
2019-04-04T05:01:18.341Z,14.77
2019-04-04T05:03:46.634Z,13.63
2019-04-04T05:06:15.042Z,12.40
2019-04-04T05:08:43.459Z,12.00
2019-04-04T05:11:14.408Z,12.17
2019-04-04T05:13:41.994Z,12.33
2019-04-04T05:16:10.401Z,12.43
2019-04-04T05:18:38.802Z,12.53
2019-04-04T05:21:07.206Z,11.83
2019-04-04T05:23:35.627Z,13.40
2019-04-04T05:26:04.299Z,13.87
2019-04-04T05:28:32.721Z,12.70
2019-04-04T05:31:01.127Z,13.40
2019-04-04T05:33:31.566Z,12.00
2019-04-04T05:35:59.655Z,12.37
2019-04-04T05:38:28.350Z,11.20
2019-04-04T05:40:56.790Z,11.73
2019-04-04T05:43:25.180Z,11.97
2019-04-04T05:45:53.589Z,11.73
2019-04-04T05:48:22.027Z,11.57
2019-04-04T05:50:50.433Z,12.30
2019-04-04T05:53:21.328Z,12.27
2019-04-04T05:55:48.978Z,11.93
2019-04-04T05:58:17.383Z,10.53
2019-04-04T06:00:46.755Z,12.17
2019-04-04T06:03:15.820Z,11.57
2019-04-04T06:05:44.469Z,12.50
2019-04-04T06:08:12.862Z,12.37
2019-04-04T06:10:41.300Z,12.60
2019-04-04T06:13:09.702Z,12.53
2019-04-04T06:15:38.578Z,12.03
2019-04-04T06:18:06.990Z,11.60
2019-04-04T06:20:35.394Z,11.33
2019-04-04T06:23:03.807Z,11.53
2019-04-04T06:25:35.671Z,12.63
2019-04-04T06:28:02.412Z,11.60
2019-04-04T06:30:42.544Z,11.63
2019-04-04T06:33:03.987Z,13.33
2019-04-04T06:35:31.150Z,12.40
2019-04-04T06:37:59.564Z,12.50
2019-04-04T06:40:30.175Z,13.47
2019-04-04T06:42:58.242Z,12.23
2019-04-04T06:45:29.493Z,12.67
2019-04-04T06:47:57.505Z,12.90
2019-04-04T06:50:26.674Z,12.50
2019-04-04T06:52:56.496Z,12.70
2019-04-04T06:55:28.449Z,12.97
2019-04-04T06:57:55.407Z,13.47
2019-04-04T07:00:23.808Z,13.57
2019-04-04T07:02:55.017Z,13.53
2019-04-04T07:05:22.342Z,13.40
2019-04-04T07:07:50.814Z,13.33
2019-04-04T07:10:21.721Z,14.37
2019-04-04T07:12:49.358Z,14.20
2019-04-04T07:15:17.894Z,14.77
2019-04-04T07:17:46.300Z,13.67
2019-04-04T07:20:16.696Z,14.13
2019-04-04T07:22:45.013Z,13.40
2019-04-04T07:25:13.421Z,14.63
2019-04-04T07:27:41.872Z,14.03
2019-04-04T07:30:10.743Z,14.30
2019-04-04T07:32:41.570Z,13.77
2019-04-04T07:35:09.684Z,14.77
2019-04-04T07:37:38.090Z,14.10
2019-04-04T07:40:07.446Z,14.47
2019-04-04T07:42:35.847Z,14.47
2019-04-04T07:45:06.254Z,14.70
2019-04-04T07:47:34.655Z,14.53
2019-04-04T07:50:03.146Z,13.97
2019-04-04T07:52:33.141Z,14.27
2019-04-04T07:55:01.764Z,14.47
2019-04-04T07:57:30.471Z,14.17
2019-04-04T07:59:59.279Z,15.10
2019-04-04T08:02:27.705Z,15.07
2019-04-04T08:04:56.099Z,14.63
2019-04-04T08:07:24.501Z,17.00
2019-04-04T08:09:52.918Z,15.07
2019-04-04T08:12:21.319Z,15.23
2019-04-04T08:14:49.741Z,15.47
2019-04-04T08:17:19.043Z,15.00
2019-04-04T08:19:59.142Z,15.77
2019-04-04T08:22:18.078Z,15.60
2019-04-04T08:24:46.627Z,16.20
2019-04-04T08:27:15.065Z,16.83
2019-04-04T08:29:43.470Z,16.70
2019-04-04T08:32:11.866Z,16.73
2019-04-04T08:34:40.279Z,17.13
2019-04-04T08:37:08.691Z,16.57
2019-04-04T08:39:37.094Z,16.43
2019-04-04T08:42:05.497Z,17.00
2019-04-04T08:44:33.983Z,16.67
2019-04-04T08:47:02.379Z,16.60
2019-04-04T08:49:30.779Z,16.93
2019-04-04T08:51:59.198Z,16.83
2019-04-04T08:54:27.602Z,17.63
2019-04-04T08:56:56.006Z,16.90
2019-04-04T08:59:24.418Z,17.47
2019-04-04T09:01:52.818Z,17.50
2019-04-04T09:04:23.834Z,18.20
2019-04-04T09:06:51.018Z,16.57
2019-04-04T09:09:19.426Z,17.87
2019-04-04T09:11:47.847Z,16.80
2019-04-04T09:14:16.246Z,16.60
2019-04-04T09:16:44.652Z,18.30
2019-04-04T09:19:13.059Z,18.13
2019-04-04T09:21:41.491Z,17.27
2019-04-04T09:24:09.886Z,17.70
2019-04-04T09:26:38.301Z,16.60
2019-04-04T09:29:06.706Z,16.53
2019-04-04T09:31:35.116Z,15.37
2019-04-04T09:34:03.588Z,14.77
2019-04-04T09:36:32.019Z,15.43
2019-04-04T09:39:00.422Z,12.93
2019-04-04T09:41:28.973Z,14.97
2019-04-04T09:43:57.381Z,15.57
2019-04-04T09:46:25.788Z,14.80
2019-04-04T09:48:54.190Z,14.03
2019-04-04T09:51:22.602Z,14.40
2019-04-04T09:53:53.330Z,14.00
2019-04-04T09:56:21.139Z,13.23
2019-04-04T09:58:49.554Z,13.40
2019-04-04T10:01:17.958Z,12.50
2019-04-04T10:03:46.358Z,12.50
2019-04-04T10:06:14.780Z,12.10
2019-04-04T10:08:43.220Z,10.50
2019-04-04T10:11:11.602Z,10.50
2019-04-04T10:13:40.146Z,9.87
2019-04-04T10:16:08.590Z,10.43
2019-04-04T10:18:36.996Z,10.40
2019-04-04T10:21:11.571Z,9.33
2019-04-04T10:23:35.531Z,11.07
2019-04-04T10:26:03.932Z,10.37
2019-04-04T10:28:32.417Z,9.80
2019-04-04T10:31:00.838Z,9.27
2019-04-04T10:33:29.230Z,9.03
2019-04-04T10:35:57.626Z,9.93
2019-04-04T10:38:26.041Z,9.93
2019-04-04T10:40:54.459Z,10.80
2019-04-04T10:43:22.870Z,10.67
2019-04-04T10:45:51.276Z,10.47
2019-04-04T10:48:19.678Z,9.43
2019-04-04T10:50:48.394Z,8.33
2019-04-04T10:53:16.813Z,9.27
2019-04-04T10:55:45.215Z,7.27
2019-04-04T10:58:13.622Z,8.80
2019-04-04T11:00:42.030Z,9.37
2019-04-04T11:03:10.427Z,9.07
2019-04-04T11:05:38.826Z,9.80
2019-04-04T11:08:07.246Z,8.47
2019-04-04T11:10:35.658Z,7.67
2019-04-04T11:13:04.082Z,9.07
2019-04-04T11:15:32.482Z,9.80
2019-04-04T11:18:00.874Z,6.57
2019-04-04T11:20:29.277Z,5.20
2019-04-04T11:22:57.675Z,6.70
2019-04-04T11:25:26.081Z,7.17
2019-04-04T11:27:54.478Z,7.13
2019-04-04T11:30:22.942Z,7.97
2019-04-04T11:32:51.371Z,8.83
2019-04-04T11:35:19.761Z,7.40
2019-04-04T11:37:48.157Z,5.47
2019-04-04T11:40:16.563Z,6.03
2019-04-04T11:42:44.959Z,6.00
2019-04-04T11:45:13.494Z,6.70
2019-04-04T11:47:41.974Z,7.30
2019-04-04T11:50:11.402Z,7.00
2019-04-04T11:52:39.874Z,6.13
2019-04-04T11:55:08.414Z,6.77
2019-04-04T11:57:36.824Z,5.83
2019-04-04T12:00:09.130Z,6.40
2019-04-04T12:02:37.535Z,5.97
2019-04-04T12:05:07.899Z,6.47
2019-04-04T12:07:38.352Z,7.03
2019-04-04T12:10:10.165Z,7.87
2019-04-04T12:12:38.562Z,7.83
2019-04-04T12:15:10.445Z,8.87
2019-04-04T12:17:38.841Z,7.60
2019-04-04T12:20:07.880Z,8.83
2019-04-04T12:22:36.283Z,9.13
2019-04-04T12:25:06.223Z,9.40
2019-04-04T12:27:34.634Z,8.50
2019-04-04T12:30:03.341Z,10.07
2019-04-04T12:32:31.740Z,8.47
2019-04-04T12:35:00.156Z,8.80
2019-04-04T12:37:28.555Z,8.50
2019-04-04T12:39:56.957Z,8.67
2019-04-04T12:42:25.350Z,9.23
2019-04-04T12:44:53.760Z,8.50
2019-04-04T12:47:22.154Z,9.00
2019-04-04T12:49:50.555Z,9.23
2019-04-04T12:52:18.967Z,9.30
2019-04-04T12:54:47.362Z,9.03
2019-04-04T12:57:15.762Z,8.77
2019-04-04T12:59:44.170Z,8.47
2019-04-04T13:02:12.570Z,9.53
2019-04-04T13:04:40.971Z,9.20
2019-04-04T13:07:09.662Z,9.40
2019-04-04T13:09:38.065Z,9.70
2019-04-04T13:12:06.531Z,9.23
2019-04-04T13:14:34.946Z,8.87
2019-04-04T13:17:03.350Z,9.10
2019-04-04T13:19:31.753Z,9.50
2019-04-04T13:22:00.223Z,9.97
2019-04-04T13:24:28.619Z,8.57
2019-04-04T13:26:57.027Z,8.17
2019-04-04T13:29:25.482Z,8.13
2019-04-04T13:31:53.890Z,7.73
2019-04-04T13:34:22.292Z,7.80
2019-04-04T13:36:50.715Z,7.57
2019-04-04T13:39:19.106Z,7.97
2019-04-04T13:41:47.514Z,7.77
2019-04-04T13:44:16.243Z,8.33
2019-04-04T13:46:44.642Z,8.13
2019-04-04T13:49:13.135Z,8.03
2019-04-04T13:51:41.527Z,8.17
2019-04-04T13:54:09.927Z,8.27
2019-04-04T13:56:38.402Z,8.57
2019-04-04T13:59:06.866Z,7.87
2019-04-04T14:01:35.267Z,6.90
2019-04-04T14:04:04.174Z,7.13
2019-04-04T14:06:32.569Z,6.57
2019-04-04T14:09:00.963Z,6.97
2019-04-04T14:11:29.361Z,6.57
2019-04-04T14:13:58.922Z,6.73
2019-04-04T14:16:27.412Z,6.60
2019-04-04T14:18:55.806Z,6.27
2019-04-04T14:21:24.455Z,5.87
2019-04-04T14:23:53.115Z,6.37
2019-04-04T14:26:21.798Z,6.00
2019-04-04T14:28:50.200Z,6.00
2019-04-04T14:31:18.598Z,5.67
2019-04-04T14:33:47.006Z,6.20
2019-04-04T14:36:15.409Z,6.07
2019-04-04T14:38:43.794Z,6.27
2019-04-04T14:41:12.234Z,6.37
2019-04-04T14:43:40.672Z,6.30
2019-04-04T14:46:09.072Z,6.63
2019-04-04T14:48:37.480Z,5.50
2019-04-04T14:51:05.880Z,5.50
2019-04-04T14:53:34.507Z,5.50
2019-04-04T14:56:03.038Z,5.77
2019-04-04T14:58:31.447Z,5.47
2019-04-04T15:00:59.839Z,5.83
2019-04-04T15:03:28.246Z,5.70
2019-04-04T15:05:56.638Z,4.93
2019-04-04T15:08:25.111Z,5.63
2019-04-04T15:10:53.888Z,5.50
2019-04-04T15:13:22.304Z,5.40
2019-04-04T15:16:10.799Z,5.33
2019-04-04T15:18:39.198Z,5.17
2019-04-04T15:21:10.753Z,4.60
2019-04-04T15:23:39.155Z,5.10
2019-04-04T15:26:09.792Z,4.90
2019-04-04T15:28:37.824Z,5.27
2019-04-04T15:31:06.230Z,5.13
2019-04-04T15:33:34.638Z,4.93
2019-04-04T15:36:03.122Z,5.10
2019-04-04T15:38:31.751Z,4.80
2019-04-04T15:41:00.152Z,4.73
2019-04-04T15:43:28.547Z,5.07
2019-04-04T15:45:56.959Z,4.73
2019-04-04T15:48:25.427Z,4.80
2019-04-04T15:50:53.822Z,4.90
2019-04-04T15:53:22.318Z,5.13
2019-04-04T15:55:50.974Z,5.00
2019-04-04T15:58:19.601Z,5.00
2019-04-04T16:00:48.014Z,5.37
2019-04-04T16:03:16.415Z,5.20
2019-04-04T16:05:44.821Z,5.03
2019-04-04T16:08:13.295Z,5.27
2019-04-04T16:10:41.705Z,4.87
2019-04-04T16:13:10.102Z,4.97
2019-04-04T16:15:38.759Z,4.60
2019-04-04T16:18:07.155Z,5.30
2019-04-04T16:20:35.554Z,5.60
2019-04-04T16:23:04.269Z,4.80
2019-04-04T16:25:32.661Z,4.93
2019-04-04T16:28:01.094Z,4.77
2019-04-04T16:30:29.548Z,4.83
2019-04-04T16:32:57.947Z,4.33
2019-04-04T16:35:26.346Z,4.90
2019-04-04T16:37:54.759Z,4.63
2019-04-04T16:40:23.237Z,4.83
2019-04-04T16:42:51.623Z,4.47
2019-04-04T16:45:20.283Z,4.37
2019-04-04T16:47:48.683Z,3.90
2019-04-04T16:50:17.144Z,4.20
2019-04-04T16:52:45.560Z,4.10
2019-04-04T16:55:14.096Z,4.17
2019-04-04T16:57:43.564Z,4.50
2019-04-04T17:00:13.506Z,4.10
2019-04-04T17:02:42.291Z,4.73
2019-04-04T17:05:11.371Z,4.03
2019-04-04T17:07:39.856Z,4.33
2019-04-04T17:10:08.990Z,4.67
2019-04-04T17:12:37.382Z,4.07
2019-04-04T17:15:07.226Z,4.33
2019-04-04T17:17:35.620Z,4.30
2019-04-04T17:20:06.162Z,4.80
2019-04-04T17:22:34.635Z,4.50
2019-04-04T17:25:03.105Z,4.83
2019-04-04T17:27:31.518Z,4.90
2019-04-04T17:30:00.282Z,4.40
2019-04-04T17:32:28.851Z,4.57
2019-04-04T17:34:57.252Z,4.67
2019-04-04T17:37:25.666Z,4.77
2019-04-04T17:39:54.570Z,4.50
2019-04-04T17:42:30.432Z,4.80
2019-04-04T17:44:53.645Z,4.80
2019-04-04T17:47:22.550Z,5.03
2019-04-04T17:49:51.500Z,5.33
2019-04-04T17:52:20.511Z,5.07
2019-04-04T17:54:48.947Z,5.00
2019-04-04T17:57:17.772Z,4.30
2019-04-04T17:59:46.199Z,4.63
2019-04-04T18:02:14.611Z,4.80
2019-04-04T18:04:48.575Z,5.60
2019-04-04T18:07:13.216Z,5.53
2019-04-04T18:09:41.615Z,5.37
2019-04-04T18:12:10.014Z,5.47
2019-04-04T18:14:38.410Z,5.73
2019-04-04T18:17:06.810Z,5.43
2019-04-04T18:19:35.224Z,5.70
2019-04-04T18:22:03.618Z,6.50
2019-04-04T18:24:32.024Z,5.53
2019-04-04T18:27:00.434Z,5.87
2019-04-04T18:29:28.823Z,5.73
2019-04-04T18:31:57.222Z,6.50
2019-04-04T18:34:25.998Z,6.40
2019-04-04T18:36:54.396Z,5.97
2019-04-04T18:39:22.786Z,6.80
2019-04-04T18:41:51.207Z,10.00
2019-04-04T18:44:19.608Z,11.23
2019-04-04T18:46:48.017Z,8.70
2019-04-04T18:49:16.411Z,8.37
2019-04-04T18:51:45.079Z,7.67
2019-04-04T18:54:13.486Z,6.93
2019-04-04T18:56:42.218Z,6.73
2019-04-04T18:59:10.917Z,6.63
2019-04-04T19:01:39.318Z,6.63
2019-04-04T19:04:07.715Z,7.37
2019-04-04T19:06:36.119Z,7.13
2019-04-04T19:09:14.750Z,8.07
2019-04-04T19:11:39.114Z,8.43
2019-04-04T19:14:07.510Z,8.80
2019-04-04T19:16:35.909Z,8.83
2019-04-04T19:19:04.643Z,8.57
2019-04-04T19:21:33.060Z,10.10
2019-04-04T19:24:01.689Z,9.27
2019-04-04T19:26:30.174Z,9.53
2019-04-04T19:28:58.575Z,9.83
2019-04-04T19:31:26.982Z,10.60
2019-04-04T19:33:55.405Z,10.73
2019-04-04T19:36:23.802Z,10.53
2019-04-04T19:38:52.211Z,10.67
2019-04-04T19:41:20.658Z,10.20
2019-04-04T19:43:49.127Z,9.90
2019-04-04T19:46:17.526Z,10.83
2019-04-04T19:48:48.221Z,11.97
2019-04-04T19:51:16.068Z,10.53
2019-04-04T19:53:44.479Z,11.27
2019-04-04T19:56:12.945Z,10.43
2019-04-04T19:58:41.643Z,11.67
2019-04-04T20:01:10.146Z,11.83
2019-04-04T20:03:38.549Z,12.37
2019-04-04T20:06:06.949Z,11.37
2019-04-04T20:08:35.366Z,10.63
2019-04-04T20:11:03.835Z,11.53
2019-04-04T20:13:32.247Z,11.93
2019-04-04T20:16:00.963Z,12.13
2019-04-04T20:18:29.366Z,11.43
2019-04-04T20:20:57.766Z,12.07
2019-04-04T20:23:26.195Z,11.40
2019-04-04T20:25:54.590Z,12.60
2019-04-04T20:28:22.999Z,12.60
2019-04-04T20:30:51.410Z,12.00
2019-04-04T20:33:19.818Z,12.30
2019-04-04T20:35:48.219Z,11.67
2019-04-04T20:38:16.648Z,11.50
2019-04-04T20:40:45.043Z,11.73
2019-04-04T20:43:13.438Z,12.17
2019-04-04T20:45:41.865Z,12.30
2019-04-04T20:48:10.270Z,11.70
2019-04-04T20:50:38.678Z,12.57
2019-04-04T20:53:07.087Z,12.47
2019-04-04T20:55:35.490Z,12.13
2019-04-04T20:58:03.895Z,11.17
2019-04-04T21:00:32.310Z,11.70
2019-04-04T21:03:00.714Z,11.50
2019-04-04T21:05:29.122Z,11.80
2019-04-04T21:07:57.546Z,11.97
2019-04-04T21:10:25.947Z,12.57
2019-04-04T21:12:54.347Z,12.77
2019-04-04T21:15:22.762Z,11.33
2019-04-04T21:17:51.167Z,12.37
2019-04-04T21:20:19.573Z,12.13
2019-04-04T21:22:47.992Z,11.23
2019-04-04T21:25:16.399Z,11.90
2019-04-04T21:27:44.803Z,11.17
2019-04-04T21:30:13.287Z,11.70
2019-04-04T21:32:41.687Z,12.50
2019-04-04T21:35:10.233Z,12.93
2019-04-04T21:37:38.647Z,11.37
2019-04-04T21:40:07.119Z,11.73
2019-04-04T21:42:35.874Z,11.37
2019-04-04T21:45:06.622Z,11.63
2019-04-04T21:47:35.022Z,11.77
2019-04-04T21:50:05.064Z,12.00
2019-04-04T21:52:33.499Z,12.50
2019-04-04T21:55:01.993Z,12.00
2019-04-04T21:57:30.398Z,11.63
2019-04-04T21:59:59.101Z,11.50
2019-04-04T22:02:27.539Z,11.03
2019-04-04T22:04:55.971Z,12.60
2019-04-04T22:07:24.395Z,11.70
2019-04-04T22:09:52.907Z,11.93
2019-04-04T22:12:21.341Z,12.90
2019-04-04T22:14:49.839Z,13.23
2019-04-04T22:17:18.292Z,12.63
2019-04-04T22:19:46.715Z,12.17
2019-04-04T22:22:15.142Z,11.77
2019-04-04T22:24:43.582Z,12.30
2019-04-04T22:27:12.007Z,11.73
2019-04-04T22:29:40.427Z,11.50
2019-04-04T22:32:08.864Z,10.87
2019-04-04T22:34:37.296Z,11.17
2019-04-04T22:37:05.724Z,11.40
2019-04-04T22:39:34.147Z,9.47
2019-04-04T22:42:02.584Z,9.77
2019-04-04T22:44:34.957Z,10.57
2019-04-04T22:47:01.167Z,10.20
2019-04-04T22:49:29.623Z,10.47
2019-04-04T22:51:58.047Z,12.20
2019-04-04T22:54:26.473Z,11.93
2019-04-04T22:56:54.919Z,12.63
2019-04-04T22:59:23.347Z,12.33
2019-04-04T23:01:51.770Z,12.70
2019-04-04T23:04:20.209Z,13.30
2019-04-04T23:06:48.638Z,13.03
2019-04-04T23:09:17.064Z,14.07
2019-04-04T23:11:45.520Z,14.80
2019-04-04T23:14:13.950Z,14.43
2019-04-04T23:16:42.378Z,13.40
2019-04-04T23:19:10.907Z,14.40
2019-04-04T23:21:39.331Z,14.67
2019-04-04T23:24:07.772Z,14.60
2019-04-04T23:26:36.278Z,14.07
2019-04-04T23:29:04.699Z,13.33
2019-04-04T23:31:33.136Z,13.33
2019-04-04T23:34:01.568Z,13.43
2019-04-04T23:36:35.329Z,13.83
2019-04-04T23:39:00.408Z,14.33
2019-04-04T23:41:28.859Z,14.40
2019-04-04T23:43:57.280Z,13.80
2019-04-04T23:46:25.704Z,15.90
2019-04-04T23:48:54.143Z,16.30
2019-04-04T23:51:22.569Z,15.33
2019-04-04T23:53:50.992Z,15.07
2019-04-04T23:56:19.423Z,15.37
2019-04-04T23:58:47.890Z,14.67
